createdAt,value
2018-05-12T00:01:33.884Z,67.90
2018-05-12T00:04:01.755Z,68.00
2018-05-12T00:06:29.708Z,68.00
2018-05-12T00:08:57.627Z,67.90
2018-05-12T00:11:26.222Z,67.90
2018-05-12T00:13:54.087Z,67.90
2018-05-12T00:16:21.913Z,67.90
2018-05-12T00:18:49.825Z,68.00
2018-05-12T00:21:17.727Z,68.00
2018-05-12T00:23:45.644Z,68.10
2018-05-12T00:26:14.332Z,68.00
2018-05-12T00:28:42.974Z,68.00
2018-05-12T00:31:10.993Z,68.00
2018-05-12T00:33:38.864Z,68.10
2018-05-12T00:36:06.848Z,68.10
2018-05-12T00:38:34.700Z,68.00
2018-05-12T00:41:02.616Z,68.00
2018-05-12T00:43:30.550Z,68.00
2018-05-12T00:45:58.447Z,68.10
2018-05-12T00:48:27.229Z,68.10
2018-05-12T00:50:55.090Z,68.10
2018-05-12T00:53:22.973Z,68.10
2018-05-12T00:55:50.856Z,68.10
2018-05-12T00:58:19.585Z,68.20
2018-05-12T01:00:47.516Z,68.20
2018-05-12T01:03:16.224Z,68.20
2018-05-12T01:05:44.165Z,68.10
2018-05-12T01:08:12.035Z,68.20
2018-05-12T01:10:40.808Z,68.30
2018-05-12T01:13:08.721Z,68.20
2018-05-12T01:15:36.575Z,68.30
2018-05-12T01:18:05.226Z,68.20
2018-05-12T01:20:33.077Z,68.20
2018-05-12T01:23:00.905Z,68.30
2018-05-12T01:25:28.813Z,68.40
2018-05-12T01:27:56.740Z,68.40
2018-05-12T01:30:24.601Z,68.50
2018-05-12T01:32:52.528Z,68.50
2018-05-12T01:35:20.518Z,68.60
2018-05-12T01:37:49.204Z,68.60
2018-05-12T01:40:17.839Z,68.60
2018-05-12T01:42:45.712Z,68.60
2018-05-12T01:45:13.575Z,68.60
2018-05-12T01:47:41.476Z,68.60
2018-05-12T01:50:09.416Z,68.70
2018-05-12T01:52:37.318Z,68.70
2018-05-12T01:55:05.920Z,68.70
2018-05-12T01:57:34.594Z,68.60
2018-05-12T02:00:03.313Z,68.70
2018-05-12T02:02:31.228Z,68.60
2018-05-12T02:04:59.195Z,68.60
2018-05-12T02:07:27.115Z,68.70
2018-05-12T02:09:55.054Z,68.80
2018-05-12T02:12:23.671Z,68.80
2018-05-12T02:14:51.552Z,68.80
2018-05-12T02:17:19.467Z,68.80
2018-05-12T02:19:48.175Z,68.90
2018-05-12T02:22:16.065Z,68.90
2018-05-12T02:24:44.017Z,68.90
2018-05-12T02:27:11.902Z,69.60
2018-05-12T02:29:39.871Z,68.90
2018-05-12T02:32:07.771Z,69.30
2018-05-12T02:34:35.667Z,68.90
2018-05-12T02:37:04.344Z,68.80
2018-05-12T02:39:32.991Z,68.80
2018-05-12T02:42:01.708Z,68.80
2018-05-12T02:44:29.550Z,68.70
2018-05-12T02:46:57.441Z,68.80
2018-05-12T02:49:25.292Z,69.60
2018-05-12T02:51:53.144Z,68.70
2018-05-12T02:54:20.992Z,68.70
2018-05-12T02:56:48.948Z,68.80
2018-05-12T02:59:16.867Z,68.90
2018-05-12T03:01:44.795Z,68.90
2018-05-12T03:04:12.746Z,68.90
2018-05-12T03:06:40.671Z,68.90
2018-05-12T03:09:08.601Z,69.00
2018-05-12T03:11:36.512Z,68.90
2018-05-12T03:14:04.387Z,68.90
2018-05-12T03:16:32.268Z,68.90
2018-05-12T03:19:00.192Z,69.00
2018-05-12T03:21:28.035Z,69.00
2018-05-12T03:23:55.875Z,69.10
2018-05-12T03:26:23.776Z,69.10
2018-05-12T03:28:51.731Z,69.10
2018-05-12T03:31:19.561Z,69.10
2018-05-12T03:33:48.222Z,69.20
2018-05-12T03:36:16.071Z,69.00
2018-05-12T03:38:43.912Z,69.10
2018-05-12T03:41:11.778Z,68.90
2018-05-12T03:43:39.652Z,69.00
2018-05-12T03:46:07.498Z,69.00
2018-05-12T03:48:35.388Z,68.90
2018-05-12T03:51:03.228Z,68.90
2018-05-12T03:53:31.080Z,68.90
2018-05-12T03:55:59.791Z,68.90
2018-05-12T03:58:27.624Z,68.90
2018-05-12T04:00:56.262Z,69.00
2018-05-12T04:03:24.112Z,68.90
2018-05-12T04:06:03.753Z,68.90
2018-05-12T04:08:43.510Z,68.90
2018-05-12T04:11:23.252Z,68.90
2018-05-12T04:13:51.145Z,68.80
2018-05-12T04:16:20.683Z,68.90
2018-05-12T04:18:49.380Z,69.00
2018-05-12T04:21:18.023Z,69.00
2018-05-12T04:23:45.868Z,69.00
2018-05-12T04:26:13.788Z,69.00
2018-05-12T04:28:42.428Z,69.10
2018-05-12T04:31:10.341Z,69.10
2018-05-12T04:33:38.938Z,69.20
2018-05-12T04:36:06.908Z,69.20
2018-05-12T04:38:34.739Z,69.20
2018-05-12T04:41:02.569Z,69.20
2018-05-12T04:43:30.498Z,69.10
2018-05-12T04:45:59.086Z,69.10
2018-05-12T04:48:27.709Z,69.10
2018-05-12T04:50:55.597Z,69.00
2018-05-12T04:53:23.459Z,69.00
2018-05-12T04:55:51.326Z,68.90
2018-05-12T05:00:54.137Z,68.80
2018-05-12T05:03:21.961Z,68.80
2018-05-12T05:05:49.832Z,68.70
2018-05-12T05:08:17.754Z,68.60
2018-05-12T05:10:45.621Z,68.70
2018-05-12T05:13:14.241Z,68.50
2018-05-12T05:15:42.180Z,68.60
2018-05-12T05:18:10.807Z,68.60
2018-05-12T05:20:38.659Z,68.50
2018-05-12T05:23:06.604Z,68.50
2018-05-12T05:25:35.284Z,68.40
2018-05-12T05:28:03.212Z,68.40
2018-05-12T05:30:31.076Z,68.20
2018-05-12T05:32:58.926Z,68.10
2018-05-12T05:35:26.804Z,68.00
2018-05-12T05:37:54.689Z,67.90
2018-05-12T05:40:22.569Z,67.80
2018-05-12T05:42:50.457Z,67.80
2018-05-12T05:45:19.182Z,67.60
2018-05-12T05:47:47.125Z,67.60
2018-05-12T05:50:14.998Z,67.50
2018-05-12T05:52:42.938Z,67.50
2018-05-12T05:55:11.603Z,67.30
2018-05-12T05:57:39.503Z,67.10
2018-05-12T06:00:08.280Z,67.10
2018-05-12T06:02:36.907Z,66.90
2018-05-12T06:05:04.803Z,66.90
2018-05-12T06:07:32.676Z,66.90
2018-05-12T06:10:00.531Z,66.90
2018-05-12T06:12:28.489Z,66.80
2018-05-12T06:14:57.242Z,66.70
2018-05-12T06:17:25.094Z,66.60
2018-05-12T06:19:53.777Z,66.30
2018-05-12T06:22:22.449Z,66.30
2018-05-12T06:24:50.291Z,66.30
2018-05-12T06:27:18.248Z,66.30
2018-05-12T06:29:46.180Z,66.20
2018-05-12T06:32:14.051Z,66.00
2018-05-12T06:34:41.988Z,65.90
2018-05-12T06:37:10.677Z,65.80
2018-05-12T06:39:39.331Z,65.60
2018-05-12T06:42:07.221Z,65.60
2018-05-12T06:44:35.062Z,65.50
2018-05-12T06:47:02.937Z,65.50
2018-05-12T06:49:30.762Z,65.30
2018-05-12T06:51:58.585Z,65.10
2018-05-12T06:54:26.447Z,65.10
2018-05-12T06:56:54.322Z,65.00
2018-05-12T06:59:22.940Z,64.50
2018-05-12T07:01:50.858Z,64.50
2018-05-12T07:04:18.784Z,64.30
2018-05-12T07:06:46.675Z,64.20
2018-05-12T07:09:14.601Z,64.20
2018-05-12T07:11:42.459Z,63.80
2018-05-12T07:14:11.082Z,63.50
2018-05-12T07:16:39.005Z,63.50
2018-05-12T07:19:07.712Z,63.00
2018-05-12T07:21:35.570Z,63.00
2018-05-12T07:24:03.476Z,63.10
2018-05-12T07:26:31.407Z,62.90
2018-05-12T07:28:59.295Z,62.50
2018-05-12T07:31:27.136Z,63.00
2018-05-12T07:33:55.825Z,61.70
2018-05-12T07:36:23.780Z,61.70
2018-05-12T07:38:52.407Z,61.40
2018-05-12T07:41:20.320Z,61.40
2018-05-12T07:43:48.175Z,61.20
2018-05-12T07:46:16.547Z,61.00
2018-05-12T07:48:44.492Z,60.80
2018-05-12T07:51:12.529Z,60.60
2018-05-12T07:53:41.131Z,59.90
2018-05-12T07:56:08.996Z,59.90
2018-05-12T07:58:36.869Z,59.90
2018-05-12T08:01:04.714Z,60.00
2018-05-12T08:03:32.722Z,59.80
2018-05-12T08:06:03.638Z,59.60
2018-05-12T08:08:31.478Z,59.50
2018-05-12T08:11:00.145Z,59.00
2018-05-12T08:13:28.761Z,59.10
2018-05-12T08:15:56.670Z,59.10
2018-05-12T08:18:24.499Z,59.10
2018-05-12T08:20:52.382Z,59.00
2018-05-12T08:23:21.344Z,58.80
2018-05-12T08:25:49.184Z,58.50
2018-05-12T08:28:17.120Z,58.20
2018-05-12T08:30:44.944Z,58.20
2018-05-12T08:33:12.928Z,58.40
2018-05-12T08:35:40.781Z,57.60
2018-05-12T08:38:08.972Z,57.60
2018-05-12T08:40:36.860Z,57.40
2018-05-12T08:43:04.749Z,57.30
2018-05-12T08:45:32.622Z,57.20
2018-05-12T08:48:00.541Z,57.10
2018-05-12T08:50:28.388Z,56.90
2018-05-12T08:52:56.240Z,56.30
2018-05-12T08:55:25.044Z,55.90
2018-05-12T08:57:52.833Z,55.80
2018-05-12T09:00:20.756Z,55.70
2018-05-12T09:02:49.465Z,55.30
2018-05-12T09:05:17.331Z,55.20
2018-05-12T09:07:45.164Z,55.00
2018-05-12T09:10:13.054Z,55.00
2018-05-12T09:12:41.673Z,54.60
2018-05-12T09:15:09.523Z,54.50
2018-05-12T09:17:37.413Z,54.30
2018-05-12T09:20:05.344Z,54.00
2018-05-12T09:22:33.302Z,53.80
2018-05-12T09:25:01.935Z,53.50
2018-05-12T09:27:29.795Z,53.50
2018-05-12T09:29:57.639Z,53.20
2018-05-12T09:32:25.556Z,53.20
2018-05-12T09:34:53.489Z,52.90
2018-05-12T09:37:21.482Z,52.40
2018-05-12T09:39:50.131Z,51.80
2018-05-12T09:42:18.037Z,51.80
2018-05-12T09:44:46.006Z,51.60
2018-05-12T09:47:13.896Z,51.50
2018-05-12T09:49:41.833Z,51.50
2018-05-12T09:52:09.919Z,51.20
2018-05-12T09:54:37.852Z,50.80
2018-05-12T09:57:05.824Z,50.20
2018-05-12T09:59:33.835Z,50.20
2018-05-12T10:02:01.714Z,50.00
2018-05-12T10:04:31.445Z,49.50
2018-05-12T10:07:00.095Z,49.40
2018-05-12T10:09:27.964Z,49.30
2018-05-12T10:11:55.828Z,49.20
2018-05-12T10:14:23.734Z,48.80
2018-05-12T10:16:51.652Z,48.50
2018-05-12T10:19:19.626Z,48.30
2018-05-12T10:21:47.555Z,47.80
2018-05-12T10:24:15.405Z,47.40
2018-05-12T10:26:43.329Z,47.40
2018-05-12T10:29:11.761Z,47.30
2018-05-12T10:31:39.621Z,46.80
2018-05-12T10:34:07.568Z,46.40
2018-05-12T10:36:36.248Z,46.30
2018-05-12T10:39:05.030Z,46.10
2018-05-12T10:41:32.974Z,46.20
2018-05-12T10:44:01.063Z,46.00
2018-05-12T10:46:28.937Z,45.90
2018-05-12T10:48:56.851Z,45.70
2018-05-12T10:51:24.792Z,45.50
2018-05-12T10:53:53.460Z,44.90
2018-05-12T10:56:21.368Z,44.80
2018-05-12T10:58:49.336Z,44.60
2018-05-12T11:01:17.281Z,44.60
2018-05-12T11:03:45.923Z,44.40
2018-05-12T11:06:13.797Z,44.30
2018-05-12T11:08:41.638Z,44.00
2018-05-12T11:11:09.528Z,43.70
2018-05-12T11:13:37.369Z,43.30
2018-05-12T11:16:05.367Z,43.30
2018-05-12T11:18:33.292Z,43.30
2018-05-12T11:21:01.154Z,43.10
2018-05-12T11:23:29.104Z,43.00
2018-05-12T11:25:57.827Z,42.70
2018-05-12T11:28:25.705Z,42.50
2018-05-12T11:30:53.618Z,42.50
2018-05-12T11:33:22.366Z,42.20
2018-05-12T11:35:50.211Z,42.20
2018-05-12T11:38:18.936Z,42.00
2018-05-12T11:40:46.857Z,41.60
2018-05-12T11:43:14.820Z,41.30
2018-05-12T11:45:42.793Z,41.20
2018-05-12T11:48:10.660Z,41.30
2018-05-12T11:50:38.536Z,41.30
2018-05-12T11:53:06.404Z,41.10
2018-05-12T11:55:34.244Z,40.90
2018-05-12T11:58:02.875Z,40.40
2018-05-12T12:00:30.748Z,40.30
2018-05-12T12:02:58.640Z,40.10
2018-05-12T12:05:26.651Z,40.00
2018-05-12T12:07:54.544Z,39.80
2018-05-12T12:10:22.469Z,39.70
2018-05-12T12:12:50.339Z,40.00
2018-05-12T12:15:18.222Z,40.50
2018-05-12T12:17:46.863Z,41.10
2018-05-12T12:20:15.540Z,41.50
2018-05-12T12:22:43.472Z,41.50
2018-05-12T12:25:11.333Z,41.80
2018-05-12T12:27:39.250Z,41.70
2018-05-12T12:30:07.885Z,41.20
2018-05-12T12:32:35.800Z,41.20
2018-05-12T12:35:03.719Z,41.00
2018-05-12T12:37:31.598Z,41.30
2018-05-12T12:39:59.505Z,41.60
2018-05-12T12:42:28.176Z,41.50
2018-05-12T12:44:56.172Z,41.50
2018-05-12T12:47:24.092Z,41.70
2018-05-12T12:49:51.929Z,41.80
2018-05-12T12:52:19.795Z,41.90
2018-05-12T12:54:47.656Z,42.00
2018-05-12T12:57:15.581Z,42.10
2018-05-12T12:59:43.463Z,43.20
2018-05-12T13:02:12.090Z,43.40
2018-05-12T13:04:39.941Z,43.30
2018-05-12T13:07:07.830Z,43.40
2018-05-12T13:09:35.659Z,43.50
2018-05-12T13:12:04.401Z,43.80
2018-05-12T13:14:32.367Z,43.70
2018-05-12T13:17:01.067Z,44.20
2018-05-12T13:19:28.901Z,44.20
2018-05-12T13:21:56.847Z,44.30
2018-05-12T13:24:24.715Z,44.10
2018-05-12T13:26:52.565Z,44.00
2018-05-12T13:29:21.875Z,43.90
2018-05-12T13:31:49.707Z,43.90
2018-05-12T13:34:17.757Z,43.80
2018-05-12T13:36:45.685Z,44.00
2018-05-12T13:39:13.559Z,44.20
2018-05-12T13:41:41.419Z,44.40
2018-05-12T13:44:09.264Z,44.60
2018-05-12T13:46:37.983Z,45.00
2018-05-12T13:49:05.863Z,45.10
2018-05-12T13:51:33.729Z,45.40
2018-05-12T13:54:01.653Z,45.50
2018-05-12T13:56:30.340Z,46.00
2018-05-12T13:58:59.013Z,46.80
2018-05-12T14:01:27.027Z,46.20
2018-05-12T14:03:54.868Z,46.40
2018-05-12T14:06:23.514Z,46.30
2018-05-12T14:08:51.404Z,46.30
2018-05-12T14:11:19.976Z,46.20
2018-05-12T14:13:47.828Z,46.20
2018-05-12T14:16:15.768Z,47.10
2018-05-12T14:18:43.637Z,47.00
2018-05-12T14:21:11.580Z,47.20
2018-05-12T14:23:39.477Z,47.30
2018-05-12T14:26:07.347Z,47.50
2018-05-12T14:28:35.206Z,47.70
2018-05-12T14:31:03.150Z,48.00
2018-05-12T14:33:32.101Z,48.10
2018-05-12T14:35:59.914Z,48.20
2018-05-12T14:38:27.836Z,48.40
2018-05-12T14:40:55.735Z,48.70
2018-05-12T14:43:24.361Z,49.20
2018-05-12T14:45:52.241Z,49.20
2018-05-12T14:48:20.122Z,49.50
2018-05-12T14:50:48.073Z,49.80
2018-05-12T14:53:15.936Z,50.20
2018-05-12T14:55:43.880Z,50.50
2018-05-12T14:58:11.752Z,50.80
2018-05-12T15:00:39.587Z,51.00
2018-05-12T15:03:07.508Z,51.00
2018-05-12T15:05:35.425Z,51.00
2018-05-12T15:08:04.105Z,50.90
2018-05-12T15:10:33.127Z,51.00
2018-05-12T15:13:01.868Z,51.10
2018-05-12T15:15:29.759Z,51.00
2018-05-12T15:17:57.608Z,51.20
2018-05-12T15:20:26.251Z,51.50
2018-05-12T15:22:54.084Z,51.40
2018-05-12T15:25:21.955Z,51.50
2018-05-12T15:27:49.806Z,51.50
2018-05-12T15:30:18.432Z,51.50
2018-05-12T15:32:46.350Z,51.50
2018-05-12T15:35:14.180Z,51.50
2018-05-12T15:37:42.190Z,51.40
2018-05-12T15:40:10.886Z,51.50
2018-05-12T15:42:38.730Z,51.50
2018-05-12T15:45:07.379Z,51.70
2018-05-12T15:47:35.315Z,51.70
2018-05-12T15:50:03.859Z,51.80
2018-05-12T15:52:32.426Z,51.80
2018-05-12T15:55:00.269Z,51.80
2018-05-12T15:57:28.178Z,51.70
2018-05-12T15:59:56.088Z,51.80
2018-05-12T16:02:24.023Z,51.90
2018-05-12T16:04:52.704Z,52.20
2018-05-12T16:07:21.328Z,52.20
2018-05-12T16:09:49.259Z,52.20
2018-05-12T16:12:17.909Z,52.40
2018-05-12T16:14:45.783Z,52.40
2018-05-12T16:17:13.624Z,52.30
2018-05-12T16:19:41.471Z,52.40
2018-05-12T16:22:09.377Z,52.30
2018-05-12T16:24:37.246Z,52.30
2018-05-12T16:27:05.099Z,52.30
2018-05-12T16:29:32.969Z,52.40
2018-05-12T16:32:00.831Z,52.60
2018-05-12T16:34:28.725Z,52.50
2018-05-12T16:36:56.564Z,52.50
2018-05-12T16:39:24.424Z,52.50
2018-05-12T16:41:52.339Z,52.60
2018-05-12T16:44:21.059Z,52.80
2018-05-12T16:46:49.013Z,52.80
2018-05-12T16:49:16.946Z,52.80
2018-05-12T16:51:44.806Z,52.60
2018-05-12T16:54:12.644Z,52.70
2018-05-12T16:56:40.595Z,52.70
2018-05-12T16:59:08.551Z,52.80
2018-05-12T17:01:36.411Z,52.90
2018-05-12T17:04:05.100Z,53.20
2018-05-12T17:06:33.100Z,53.20
2018-05-12T17:09:01.649Z,53.50
2018-05-12T17:11:30.264Z,53.50
2018-05-12T17:14:02.306Z,53.50
2018-05-12T17:16:30.451Z,53.70
2018-05-12T17:18:59.086Z,54.10
2018-05-12T17:21:26.912Z,54.00
2018-05-12T17:23:55.501Z,54.20
2018-05-12T17:26:24.221Z,54.40
2018-05-12T17:28:52.166Z,54.40
2018-05-12T17:31:20.007Z,54.60
2018-05-12T17:33:48.618Z,54.90
2018-05-12T17:36:16.467Z,54.90
2018-05-12T17:38:45.161Z,54.80
2018-05-12T17:41:13.860Z,54.90
2018-05-12T17:43:41.747Z,54.90
2018-05-12T17:46:09.616Z,55.20
2018-05-12T17:48:37.543Z,55.40
2018-05-12T17:51:06.262Z,55.70
2018-05-12T17:53:34.159Z,55.60
2018-05-12T17:56:02.053Z,55.80
2018-05-12T17:58:30.752Z,55.80
2018-05-12T18:00:58.621Z,55.80
2018-05-12T18:03:27.344Z,55.90
2018-05-12T18:05:55.177Z,55.90
2018-05-12T18:08:23.084Z,55.90
2018-05-12T18:10:50.905Z,56.20
2018-05-12T18:13:18.746Z,56.30
2018-05-12T18:15:46.665Z,56.40
2018-05-12T18:18:14.607Z,56.40
2018-05-12T18:20:43.218Z,56.80
2018-05-12T18:23:11.186Z,56.70
2018-05-12T18:25:39.846Z,57.00
2018-05-12T18:28:08.465Z,56.90
2018-05-12T18:30:36.389Z,56.90
2018-05-12T18:33:05.022Z,57.10
2018-05-12T18:35:32.901Z,57.10
2018-05-12T18:38:00.729Z,57.00
2018-05-12T18:40:28.669Z,57.00
2018-05-12T18:42:57.279Z,57.10
2018-05-12T18:45:25.139Z,57.10
2018-05-12T18:47:53.056Z,57.20
2018-05-12T18:50:20.925Z,57.30
2018-05-12T18:52:48.801Z,57.30
2018-05-12T18:55:16.945Z,57.50
2018-05-12T18:57:45.633Z,57.70
2018-05-12T19:00:13.491Z,57.70
2018-05-12T19:02:41.373Z,57.70
2018-05-12T19:05:09.250Z,57.80
2018-05-12T19:07:37.140Z,57.90
2018-05-12T19:10:05.902Z,58.00
2018-05-12T19:12:33.875Z,58.00
2018-05-12T19:15:01.836Z,58.20
2018-05-12T19:17:29.706Z,58.30
2018-05-12T19:19:57.791Z,58.30
2018-05-12T19:22:25.770Z,58.40
2018-05-12T19:24:53.623Z,58.60
2018-05-12T19:27:21.549Z,58.60
2018-05-12T19:29:49.388Z,58.50
2018-05-12T19:32:18.024Z,58.60
2018-05-12T19:34:45.965Z,58.60
2018-05-12T19:37:13.840Z,58.70
2018-05-12T19:39:41.727Z,58.80
2018-05-12T19:42:09.621Z,59.00
2018-05-12T19:44:37.464Z,59.20
2018-05-12T19:47:05.868Z,59.30
2018-05-12T19:49:33.926Z,59.40
2018-05-12T19:52:01.796Z,59.50
2018-05-12T19:54:29.624Z,59.50
2018-05-12T19:56:58.307Z,59.50
2018-05-12T19:59:26.281Z,59.60
2018-05-12T20:01:54.143Z,59.60
2018-05-12T20:04:21.965Z,59.50
2018-05-12T20:06:50.611Z,59.90
2018-05-12T20:09:20.155Z,59.80
2018-05-12T20:11:48.849Z,59.90
2018-05-12T20:14:17.577Z,59.90
2018-05-12T20:16:45.466Z,59.90
2018-05-12T20:19:13.364Z,59.90
2018-05-12T20:21:41.970Z,60.00
2018-05-12T20:24:09.904Z,60.60
2018-05-12T20:26:37.876Z,60.00
2018-05-12T20:29:05.732Z,60.00
2018-05-12T20:31:33.660Z,60.00
2018-05-12T20:34:01.593Z,60.10
2018-05-12T20:36:30.213Z,60.10
2018-05-12T20:38:58.157Z,60.10
2018-05-12T20:41:26.096Z,60.20
2018-05-12T20:43:53.945Z,60.30
2018-05-12T20:46:21.845Z,60.30
2018-05-12T20:48:50.518Z,60.30
2018-05-12T20:51:18.464Z,60.30
2018-05-12T20:53:46.360Z,60.70
2018-05-12T20:56:15.136Z,60.50
2018-05-12T20:58:43.032Z,60.50
2018-05-12T21:01:10.948Z,60.40
2018-05-12T21:03:38.902Z,60.40
2018-05-12T21:06:06.881Z,60.30
2018-05-12T21:08:34.736Z,60.30
2018-05-12T21:11:02.611Z,60.30
2018-05-12T21:13:30.509Z,60.30
2018-05-12T21:15:58.389Z,60.30
2018-05-12T21:18:27.056Z,60.50
2018-05-12T21:20:54.930Z,60.50
2018-05-12T21:23:22.844Z,60.50
2018-05-12T21:25:50.772Z,60.60
2018-05-12T21:28:19.372Z,60.60
2018-05-12T21:30:47.980Z,60.50
2018-05-12T21:33:15.875Z,60.50
2018-05-12T21:35:43.788Z,60.60
2018-05-12T21:38:12.433Z,60.60
2018-05-12T21:40:40.316Z,60.50
2018-05-12T21:43:08.179Z,60.50
2018-05-12T21:45:36.048Z,60.50
2018-05-12T21:48:04.003Z,61.20
2018-05-12T21:50:31.835Z,60.50
2018-05-12T21:52:59.685Z,60.50
2018-05-12T21:55:27.574Z,60.50
2018-05-12T21:57:55.428Z,60.30
2018-05-12T22:00:23.372Z,60.30
2018-05-12T22:02:52.072Z,60.20
2018-05-12T22:05:19.939Z,60.10
2018-05-12T22:07:47.837Z,60.00
2018-05-12T22:10:15.643Z,59.90
2018-05-12T22:12:44.220Z,59.70
2018-05-12T22:15:12.104Z,59.70
2018-05-12T22:17:40.693Z,59.50
2018-05-12T22:20:09.352Z,59.40
2018-05-12T22:22:37.184Z,59.40
2018-05-12T22:25:05.068Z,59.40
2018-05-12T22:27:32.876Z,59.30
2018-05-12T22:30:01.476Z,59.10
2018-05-12T22:32:29.362Z,59.10
2018-05-12T22:34:58.037Z,59.10
2018-05-12T22:37:25.930Z,59.00
2018-05-12T22:39:53.749Z,59.00
2018-05-12T22:42:22.345Z,59.00
2018-05-12T22:44:50.170Z,59.00
2018-05-12T22:47:18.121Z,59.20
2018-05-12T22:49:45.924Z,59.20
2018-05-12T22:52:14.505Z,59.30
2018-05-12T22:54:43.103Z,59.40
2018-05-12T22:57:10.927Z,59.40
2018-05-12T22:59:39.595Z,59.50
2018-05-12T23:02:07.497Z,59.50
2018-05-12T23:04:36.076Z,59.50
2018-05-12T23:07:03.981Z,59.40
2018-05-12T23:09:31.811Z,59.90
2018-05-12T23:11:59.723Z,59.20
2018-05-12T23:14:27.536Z,59.80
2018-05-12T23:16:55.360Z,59.20
2018-05-12T23:19:23.265Z,59.10
2018-05-12T23:21:51.124Z,59.10
2018-05-12T23:24:18.958Z,59.10
2018-05-12T23:26:46.810Z,59.10
2018-05-12T23:29:14.729Z,59.00
2018-05-12T23:31:42.676Z,59.10
2018-05-12T23:34:10.541Z,59.00
2018-05-12T23:36:38.463Z,59.00
2018-05-12T23:39:07.064Z,59.10
2018-05-12T23:41:34.992Z,59.00
2018-05-12T23:44:02.900Z,59.10
2018-05-12T23:46:31.577Z,59.20
2018-05-12T23:48:59.490Z,59.20
2018-05-12T23:51:27.414Z,59.20
2018-05-12T23:53:55.268Z,59.40
2018-05-12T23:56:23.885Z,59.30
2018-05-12T23:58:51.754Z,59.30
